createdAt,value
2022-09-23T00:02:06.441Z,5.50
2022-09-23T00:04:33.799Z,7.55
2022-09-23T00:07:01.153Z,4.90
2022-09-23T00:09:28.492Z,5.43
2022-09-23T00:11:56.334Z,4.32
2022-09-23T00:14:24.444Z,6.40
2022-09-23T00:16:53.287Z,3.58
2022-09-23T00:19:21.567Z,4.28
2022-09-23T00:21:49.052Z,4.85
2022-09-23T00:24:16.764Z,7.78
2022-09-23T00:26:44.548Z,4.47
2022-09-23T00:29:11.930Z,3.60
2022-09-23T00:31:39.250Z,4.63
2022-09-23T00:34:07.919Z,6.18
2022-09-23T00:36:35.306Z,6.10
2022-09-23T00:39:04.551Z,6.05
2022-09-23T00:41:32.040Z,5.38
2022-09-23T00:43:59.641Z,4.32
2022-09-23T00:46:27.727Z,3.92
2022-09-23T00:48:56.889Z,5.93
2022-09-23T00:51:26.015Z,4.40
2022-09-23T00:53:53.355Z,3.17
2022-09-23T00:56:20.822Z,4.70
2022-09-23T00:58:48.189Z,3.08
2022-09-23T01:01:15.624Z,5.57
2022-09-23T01:03:43.246Z,3.38
2022-09-23T01:06:10.912Z,3.88
2022-09-23T01:08:39.653Z,3.08
2022-09-23T01:11:09.159Z,3.72
2022-09-23T01:13:37.391Z,3.25
2022-09-23T01:16:06.648Z,5.13
2022-09-23T01:18:35.506Z,3.45
2022-09-23T01:21:16.575Z,4.22
2022-09-23T01:24:02.206Z,3.58
2022-09-23T01:26:44.648Z,3.72
2022-09-23T01:29:18.717Z,3.08
2022-09-23T01:31:48.879Z,4.10
2022-09-23T01:34:16.884Z,4.13
2022-09-23T01:36:45.088Z,4.95
2022-09-23T01:39:13.295Z,4.28
2022-09-23T01:41:49.009Z,2.83
2022-09-23T01:44:19.408Z,3.88
2022-09-23T01:46:50.528Z,3.65
2022-09-23T01:49:18.317Z,6.45
2022-09-23T01:51:46.768Z,3.15
2022-09-23T01:54:16.239Z,2.55
2022-09-23T01:56:44.176Z,4.20
2022-09-23T01:59:12.690Z,4.05
2022-09-23T02:01:41.196Z,2.70
2022-09-23T02:04:11.442Z,3.22
2022-09-23T02:06:39.485Z,3.58
2022-09-23T02:09:08.387Z,3.38
2022-09-23T02:11:36.211Z,3.20
2022-09-23T02:14:04.103Z,4.25
2022-09-23T02:16:32.883Z,3.10
2022-09-23T02:19:00.997Z,4.47
2022-09-23T02:21:30.812Z,3.10
2022-09-23T02:24:00.404Z,2.72
2022-09-23T02:26:29.440Z,3.20
2022-09-23T02:28:57.784Z,4.90
2022-09-23T02:31:29.720Z,3.58
2022-09-23T02:33:58.260Z,4.22
2022-09-23T02:36:26.892Z,2.50
2022-09-23T02:38:57.334Z,3.97
2022-09-23T02:41:26.333Z,3.05
2022-09-23T02:43:54.889Z,2.95
2022-09-23T02:46:22.273Z,3.67
2022-09-23T02:48:50.345Z,2.80
2022-09-23T02:51:17.659Z,3.15
2022-09-23T02:53:45.768Z,2.75
2022-09-23T02:56:16.061Z,3.33
2022-09-23T02:58:43.418Z,2.42
2022-09-23T03:01:13.253Z,3.35
2022-09-23T03:03:41.622Z,3.22
2022-09-23T03:06:10.672Z,3.15
2022-09-23T03:08:40.024Z,2.92
2022-09-23T03:11:08.429Z,2.60
2022-09-23T03:13:39.508Z,2.78
2022-09-23T03:16:10.093Z,3.72
2022-09-23T03:18:39.538Z,4.45
2022-09-23T03:21:07.654Z,2.58
2022-09-23T03:23:35.620Z,3.13
2022-09-23T03:26:04.719Z,3.22
2022-09-23T03:28:32.077Z,2.50
2022-09-23T03:31:01.014Z,2.60
2022-09-23T03:33:29.121Z,3.45
2022-09-23T03:36:15.801Z,2.83
2022-09-23T03:38:44.106Z,2.88
2022-09-23T03:41:11.805Z,3.85
2022-09-23T03:43:39.323Z,5.65
2022-09-23T03:46:08.173Z,2.50
2022-09-23T03:48:35.586Z,2.90
2022-09-23T03:51:03.090Z,3.88
2022-09-23T03:53:30.448Z,2.75
2022-09-23T03:55:58.035Z,3.00
2022-09-23T03:58:25.363Z,2.85
2022-09-23T04:00:54.603Z,3.75
2022-09-23T04:03:23.348Z,2.95
2022-09-23T04:05:51.180Z,3.70
2022-09-23T04:08:18.512Z,3.47
2022-09-23T04:10:46.973Z,3.97
2022-09-23T04:13:15.179Z,3.25
2022-09-23T04:15:42.532Z,4.00
2022-09-23T04:18:09.876Z,5.63
2022-09-23T04:20:38.717Z,3.97
2022-09-23T04:23:06.096Z,2.63
2022-09-23T04:25:33.431Z,2.63
2022-09-23T04:28:00.806Z,4.00
2022-09-23T04:30:28.194Z,3.33
2022-09-23T04:32:55.631Z,3.20
2022-09-23T04:35:23.006Z,3.33
2022-09-23T04:37:51.701Z,4.13
2022-09-23T04:40:19.237Z,4.45
2022-09-23T04:42:46.637Z,3.83
2022-09-23T04:45:14.033Z,3.47
2022-09-23T04:47:41.361Z,3.08
2022-09-23T04:50:09.026Z,3.22
2022-09-23T04:52:36.389Z,3.47
2022-09-23T04:55:09.222Z,3.58
2022-09-23T04:57:38.549Z,3.55
2022-09-23T05:00:06.483Z,3.95
2022-09-23T05:02:35.534Z,3.53
2022-09-23T05:05:03.940Z,4.78
2022-09-23T05:07:31.272Z,4.53
2022-09-23T05:09:58.594Z,4.28
2022-09-23T05:12:27.278Z,3.45
2022-09-23T05:14:54.608Z,2.78
2022-09-23T05:17:21.982Z,3.17
2022-09-23T05:19:49.325Z,3.97
2022-09-23T05:22:16.673Z,3.15
2022-09-23T05:24:44.003Z,4.07
2022-09-23T05:27:11.331Z,4.47
2022-09-23T05:29:40.308Z,2.97
2022-09-23T05:32:07.919Z,3.60
2022-09-23T05:34:35.270Z,2.92
2022-09-23T05:37:02.671Z,3.92
2022-09-23T05:39:30.016Z,4.72
2022-09-23T05:41:59.966Z,4.43
2022-09-23T05:44:27.476Z,3.67
2022-09-23T05:46:56.234Z,3.72
2022-09-23T05:49:33.234Z,3.63
2022-09-23T05:52:10.965Z,5.75
2022-09-23T05:54:38.446Z,33.75
2022-09-23T05:57:06.052Z,4.80
2022-09-23T05:59:33.676Z,5.65
2022-09-23T06:02:02.556Z,13.75
2022-09-23T06:04:29.925Z,10.13
2022-09-23T06:07:01.456Z,9.23
2022-09-23T06:09:35.601Z,14.50
2022-09-23T06:12:03.840Z,16.98
2022-09-23T06:14:31.171Z,3.95
2022-09-23T06:16:58.489Z,9.20
2022-09-23T06:19:27.167Z,6.05
2022-09-23T06:21:54.488Z,4.57
2022-09-23T06:24:25.984Z,6.65
2022-09-23T06:26:56.038Z,5.57
2022-09-23T06:29:23.420Z,8.98
2022-09-23T06:31:50.816Z,8.63
2022-09-23T06:34:18.550Z,10.65
2022-09-23T06:36:47.631Z,12.07
2022-09-23T06:39:15.128Z,18.77
2022-09-23T06:41:42.604Z,10.85
2022-09-23T06:44:09.995Z,7.55
2022-09-23T06:46:37.709Z,14.50
2022-09-23T06:49:05.086Z,20.23
2022-09-23T06:51:32.403Z,30.90
2022-09-23T06:54:01.087Z,20.52
2022-09-23T06:56:28.410Z,28.42
2022-09-23T06:58:55.752Z,20.33
2022-09-23T07:01:23.212Z,19.48
2022-09-23T07:03:50.677Z,20.92
2022-09-23T07:06:18.039Z,24.20
2022-09-23T07:08:46.751Z,25.23
2022-09-23T07:11:15.636Z,25.08
2022-09-23T07:13:42.980Z,17.75
2022-09-23T07:16:10.819Z,31.75
2022-09-23T07:18:38.237Z,26.40
2022-09-23T07:21:06.378Z,18.70
2022-09-23T07:23:34.052Z,33.80
2022-09-23T07:26:01.492Z,18.08
2022-09-23T07:28:30.208Z,20.02
2022-09-23T07:31:00.683Z,16.38
2022-09-23T07:33:33.343Z,16.10
2022-09-23T07:36:04.361Z,11.60
2022-09-23T07:38:31.710Z,18.73
2022-09-23T07:41:03.368Z,12.43
2022-09-23T07:43:32.844Z,13.85
2022-09-23T07:46:02.114Z,13.63
2022-09-23T07:48:34.068Z,22.95
2022-09-23T07:51:01.811Z,21.17
2022-09-23T07:53:30.209Z,21.52
2022-09-23T07:55:57.947Z,12.45
2022-09-23T07:58:25.603Z,26.35
2022-09-23T08:00:54.308Z,27.20
2022-09-23T08:03:21.730Z,20.35
2022-09-23T08:05:49.113Z,17.08
2022-09-23T08:08:17.205Z,17.33
2022-09-23T08:10:45.851Z,20.00
2022-09-23T08:13:13.202Z,51.28
2022-09-23T08:15:43.796Z,31.88
2022-09-23T08:18:12.496Z,38.88
2022-09-23T08:20:47.368Z,39.00
2022-09-23T08:23:15.336Z,35.03
2022-09-23T08:25:45.480Z,37.15
2022-09-23T08:28:16.222Z,32.72
2022-09-23T08:30:44.096Z,31.92
2022-09-23T08:33:12.944Z,15.95
2022-09-23T08:35:40.506Z,19.67
2022-09-23T08:38:07.854Z,20.13
2022-09-23T08:40:35.562Z,17.35
2022-09-23T08:43:05.519Z,17.27
2022-09-23T08:45:33.573Z,13.23
2022-09-23T08:48:01.832Z,8.45
2022-09-23T08:50:31.709Z,19.00
2022-09-23T08:52:59.546Z,10.13
2022-09-23T08:55:29.614Z,20.27
2022-09-23T08:58:23.857Z,15.10
2022-09-23T09:00:50.741Z,16.40
2022-09-23T09:03:19.777Z,27.15
2022-09-23T09:05:54.238Z,27.70
2022-09-23T09:08:24.234Z,14.95
2022-09-23T09:10:51.661Z,14.68
2022-09-23T09:13:22.368Z,11.82
2022-09-23T09:15:50.795Z,22.30
2022-09-23T09:18:19.786Z,12.27
2022-09-23T09:20:49.780Z,12.85
2022-09-23T09:23:20.034Z,14.05
2022-09-23T09:25:47.642Z,19.35
2022-09-23T09:28:16.828Z,16.80
2022-09-23T09:30:48.321Z,9.30
2022-09-23T09:33:17.232Z,27.27
2022-09-23T09:35:53.385Z,16.50
2022-09-23T09:38:21.879Z,15.68
2022-09-23T09:40:49.309Z,22.23
2022-09-23T09:43:23.187Z,19.05
2022-09-23T09:45:58.048Z,20.17
2022-09-23T09:48:27.847Z,17.35
2022-09-23T09:50:56.546Z,11.95
2022-09-23T09:53:24.641Z,11.30
2022-09-23T09:56:05.056Z,10.75
2022-09-23T09:58:41.545Z,13.38
2022-09-23T10:01:09.030Z,10.13
2022-09-23T10:03:39.151Z,12.35
2022-09-23T10:06:21.511Z,16.98
2022-09-23T10:08:50.008Z,21.25
2022-09-23T10:11:17.814Z,18.83
2022-09-23T10:14:01.190Z,15.88
2022-09-23T10:16:28.556Z,17.45
2022-09-23T10:18:57.002Z,15.18
2022-09-23T10:21:28.058Z,18.38
2022-09-23T10:23:57.836Z,11.50
2022-09-23T10:26:26.868Z,12.85
2022-09-23T10:28:55.518Z,11.90
2022-09-23T10:31:25.206Z,14.18
2022-09-23T10:33:54.528Z,10.43
2022-09-23T10:36:21.945Z,8.73
2022-09-23T10:38:51.630Z,17.95
2022-09-23T10:41:39.915Z,9.25
2022-09-23T10:44:33.663Z,11.15
2022-09-23T10:47:03.101Z,16.25
2022-09-23T10:49:49.859Z,12.40
2022-09-23T10:52:20.542Z,11.18
2022-09-23T10:54:52.743Z,7.68
2022-09-23T10:57:40.843Z,9.57
2022-09-23T11:00:16.987Z,12.20
2022-09-23T11:02:52.477Z,9.25
2022-09-23T11:05:35.879Z,11.85
2022-09-23T11:08:06.273Z,9.15
2022-09-23T11:10:51.990Z,6.88
2022-09-23T11:13:23.237Z,12.93
2022-09-23T11:15:51.988Z,15.20
2022-09-23T11:18:23.126Z,11.93
2022-09-23T11:20:54.472Z,13.07
2022-09-23T11:23:33.446Z,12.05
2022-09-23T11:26:04.282Z,13.70
2022-09-23T11:28:35.319Z,11.57
2022-09-23T11:31:06.283Z,13.98
2022-09-23T11:33:37.594Z,20.92
2022-09-23T11:36:06.667Z,21.73
2022-09-23T11:38:35.781Z,17.55
2022-09-23T11:41:05.796Z,17.20
2022-09-23T11:43:35.245Z,13.93
2022-09-23T11:46:03.975Z,15.93
2022-09-23T11:48:33.450Z,16.05
2022-09-23T11:51:01.321Z,17.08
2022-09-23T11:53:30.909Z,19.77
2022-09-23T11:56:07.147Z,26.13
2022-09-23T11:58:36.211Z,22.33
2022-09-23T12:01:07.000Z,20.25
2022-09-23T12:03:43.734Z,25.45
2022-09-23T12:06:13.325Z,29.42
2022-09-23T12:08:40.699Z,29.92
2022-09-23T12:11:09.478Z,21.65
2022-09-23T12:13:42.748Z,26.27
2022-09-23T12:16:25.042Z,39.90
2022-09-23T12:18:55.287Z,37.88
2022-09-23T12:21:49.236Z,43.10
2022-09-23T12:24:21.653Z,48.65
2022-09-23T12:26:50.076Z,40.80
2022-09-23T12:29:18.849Z,27.83
2022-09-23T12:31:46.810Z,32.08
2022-09-23T12:34:20.866Z,33.85
2022-09-23T12:36:48.208Z,39.20
2022-09-23T12:39:16.000Z,27.05
2022-09-23T12:41:43.479Z,28.33
2022-09-23T12:44:14.493Z,41.20
2022-09-23T12:46:43.370Z,26.48
2022-09-23T12:49:23.341Z,36.00
2022-09-23T12:52:05.575Z,26.30
2022-09-23T12:54:32.910Z,19.23
2022-09-23T12:57:00.715Z,31.52
2022-09-23T12:59:28.633Z,21.25
2022-09-23T13:01:57.500Z,29.98
2022-09-23T13:04:46.288Z,27.58
2022-09-23T13:07:14.844Z,32.08
2022-09-23T13:09:42.807Z,17.80
2022-09-23T13:12:19.730Z,28.08
2022-09-23T13:14:47.124Z,17.90
2022-09-23T13:17:24.312Z,17.05
2022-09-23T13:19:58.269Z,22.23
2022-09-23T13:22:41.324Z,19.63
2022-09-23T13:25:11.869Z,19.00
2022-09-23T13:27:39.237Z,29.02
2022-09-23T13:30:07.645Z,16.63
2022-09-23T13:32:36.765Z,25.98
2022-09-23T13:35:05.283Z,19.33
2022-09-23T13:37:39.925Z,24.35
2022-09-23T13:40:11.318Z,18.30
2022-09-23T13:42:39.805Z,25.23
2022-09-23T13:45:07.528Z,17.38
2022-09-23T13:47:36.209Z,14.50
2022-09-23T13:50:03.550Z,18.88
2022-09-23T13:52:32.006Z,37.42
2022-09-23T13:54:59.330Z,10.55
2022-09-23T13:57:27.298Z,15.23
2022-09-23T13:59:54.644Z,12.25
2022-09-23T14:02:25.532Z,11.35
2022-09-23T14:04:55.296Z,18.45
2022-09-23T14:07:22.652Z,14.85
2022-09-23T14:09:50.557Z,16.70
2022-09-23T14:12:21.950Z,10.88
2022-09-23T14:14:49.620Z,22.15
2022-09-23T14:17:18.065Z,21.70
2022-09-23T14:19:45.397Z,15.18
2022-09-23T14:22:23.315Z,13.90
2022-09-23T14:24:50.668Z,16.63
2022-09-23T14:27:18.856Z,11.70
2022-09-23T14:29:46.528Z,17.85
2022-09-23T14:32:14.365Z,19.45
2022-09-23T14:34:42.166Z,13.55
2022-09-23T14:37:29.013Z,14.52
2022-09-23T14:39:57.981Z,14.63
2022-09-23T14:42:26.021Z,11.10
2022-09-23T14:44:53.345Z,12.85
2022-09-23T14:47:20.925Z,15.80
2022-09-23T14:50:09.441Z,8.35
2022-09-23T14:52:36.765Z,8.43
2022-09-23T14:55:05.929Z,12.80
2022-09-23T14:57:33.289Z,8.43
2022-09-23T15:00:01.200Z,8.80
2022-09-23T15:02:31.080Z,7.68
2022-09-23T15:05:08.612Z,8.98
2022-09-23T15:07:36.643Z,10.70
2022-09-23T15:10:05.588Z,11.02
2022-09-23T15:12:32.906Z,9.90
2022-09-23T15:15:00.281Z,7.15
2022-09-23T15:17:32.360Z,8.45
2022-09-23T15:20:00.313Z,6.68
2022-09-23T15:22:28.309Z,8.65
2022-09-23T15:24:55.752Z,6.28
2022-09-23T15:27:33.727Z,13.63
2022-09-23T15:30:14.898Z,11.95
2022-09-23T15:32:42.961Z,20.77
2022-09-23T15:35:13.607Z,11.65
2022-09-23T15:37:40.944Z,5.10
2022-09-23T15:40:11.811Z,5.93
2022-09-23T15:42:41.579Z,8.00
2022-09-23T15:45:12.063Z,9.65
2022-09-23T15:47:39.380Z,21.13
2022-09-23T15:50:07.142Z,10.23
2022-09-23T15:52:34.669Z,13.95
2022-09-23T15:55:02.014Z,11.60
2022-09-23T15:57:29.347Z,16.75
2022-09-23T15:59:58.483Z,11.32
2022-09-23T16:02:25.850Z,10.30
2022-09-23T16:04:53.462Z,14.93
2022-09-23T16:07:20.941Z,8.27
2022-09-23T16:09:48.324Z,6.88
2022-09-23T16:12:15.867Z,10.07
2022-09-23T16:14:43.282Z,8.57
2022-09-23T16:17:12.937Z,9.23
2022-09-23T16:19:40.295Z,7.30
2022-09-23T16:22:07.634Z,17.95
2022-09-23T16:24:34.976Z,10.43
2022-09-23T16:27:03.412Z,9.00
2022-09-23T16:29:30.749Z,6.10
2022-09-23T16:31:58.205Z,6.32
2022-09-23T16:34:26.975Z,7.88
2022-09-23T16:36:54.448Z,13.65
2022-09-23T16:39:22.868Z,9.65
2022-09-23T16:41:50.221Z,16.27
2022-09-23T16:44:17.589Z,15.25
2022-09-23T16:46:44.947Z,13.57
2022-09-23T16:49:13.608Z,19.27
2022-09-23T16:51:42.308Z,10.95
2022-09-23T16:54:10.313Z,9.88
2022-09-23T16:56:38.058Z,9.95
2022-09-23T16:59:05.429Z,13.20
2022-09-23T17:01:50.482Z,8.73
2022-09-23T17:04:18.253Z,8.07
2022-09-23T17:06:50.019Z,27.77
2022-09-23T17:09:17.455Z,25.23
2022-09-23T17:11:47.590Z,15.63
2022-09-23T17:14:15.055Z,20.10
2022-09-23T17:16:42.474Z,18.45
2022-09-23T17:19:10.427Z,17.42
2022-09-23T17:21:37.857Z,16.10
2022-09-23T17:24:06.913Z,15.05
2022-09-23T17:26:34.229Z,18.05
2022-09-23T17:29:02.075Z,14.93
2022-09-23T17:31:30.456Z,18.88
2022-09-23T17:33:57.890Z,13.23
2022-09-23T17:36:25.224Z,12.82
2022-09-23T17:38:54.244Z,13.30
2022-09-23T17:41:22.930Z,19.27
2022-09-23T17:43:54.303Z,15.80
2022-09-23T17:46:21.711Z,26.58
2022-09-23T17:48:49.100Z,26.17
2022-09-23T17:51:17.303Z,19.25
2022-09-23T17:53:45.235Z,23.45
2022-09-23T17:56:13.334Z,18.33
2022-09-23T17:58:42.020Z,18.67
2022-09-23T18:01:09.748Z,16.73
2022-09-23T18:03:37.247Z,21.58
2022-09-23T18:06:08.484Z,26.35
2022-09-23T18:08:35.842Z,19.48
2022-09-23T18:11:11.056Z,30.83
2022-09-23T18:13:38.444Z,17.95
2022-09-23T18:16:07.479Z,22.40
2022-09-23T18:18:34.854Z,16.55
2022-09-23T18:21:02.639Z,17.80
2022-09-23T18:23:30.040Z,18.02
2022-09-23T18:25:57.405Z,21.98
2022-09-23T18:28:24.821Z,22.23
2022-09-23T18:30:55.084Z,19.05
2022-09-23T18:33:23.792Z,16.02
2022-09-23T18:35:51.625Z,26.27
2022-09-23T18:38:18.987Z,24.60
2022-09-23T18:40:54.137Z,33.65
2022-09-23T18:43:24.585Z,32.72
2022-09-23T18:45:57.152Z,25.92
2022-09-23T18:48:43.495Z,25.33
2022-09-23T18:51:10.849Z,30.98
2022-09-23T18:53:38.232Z,31.23
2022-09-23T18:56:06.796Z,19.17
2022-09-23T18:58:34.130Z,22.88
2022-09-23T19:01:05.948Z,24.15
2022-09-23T19:03:34.802Z,22.15
2022-09-23T19:06:02.698Z,21.25
2022-09-23T19:08:30.077Z,18.88
2022-09-23T19:10:57.409Z,16.83
2022-09-23T19:13:24.733Z,8.25
2022-09-23T19:15:52.084Z,20.83
2022-09-23T19:18:20.879Z,12.38
2022-09-23T19:20:53.242Z,12.93
2022-09-23T19:23:20.613Z,25.52
2022-09-23T19:25:47.989Z,14.75
2022-09-23T19:28:15.341Z,16.63
2022-09-23T19:30:42.670Z,11.85
2022-09-23T19:33:10.015Z,13.55
2022-09-23T19:35:37.645Z,13.48
2022-09-23T19:38:07.165Z,11.57
2022-09-23T19:40:37.116Z,21.00
2022-09-23T19:43:04.947Z,9.32
2022-09-23T19:45:33.960Z,16.08
2022-09-23T19:48:01.962Z,15.32
2022-09-23T19:50:34.439Z,10.68
2022-09-23T19:53:04.645Z,15.68
2022-09-23T19:55:33.905Z,12.25
2022-09-23T19:58:01.333Z,13.45
2022-09-23T20:00:28.763Z,8.32
2022-09-23T20:02:56.696Z,7.75
2022-09-23T20:05:24.237Z,15.55
2022-09-23T20:07:52.725Z,20.17
2022-09-23T20:10:20.056Z,14.40
2022-09-23T20:12:48.729Z,20.52
2022-09-23T20:15:16.194Z,20.15
2022-09-23T20:17:43.527Z,17.38
2022-09-23T20:20:11.357Z,14.30
2022-09-23T20:22:38.724Z,10.02
2022-09-23T20:25:09.275Z,18.23
2022-09-23T20:27:35.656Z,22.27
2022-09-23T20:30:04.491Z,20.92
2022-09-23T20:32:31.831Z,13.27
2022-09-23T20:34:59.164Z,9.95
2022-09-23T20:37:26.510Z,12.65
2022-09-23T20:39:53.847Z,16.65
2022-09-23T20:42:22.197Z,15.60
2022-09-23T20:44:49.517Z,15.50
2022-09-23T20:47:18.366Z,9.57
2022-09-23T20:49:46.139Z,17.48
2022-09-23T20:52:14.195Z,15.95
2022-09-23T20:54:42.033Z,15.10
2022-09-23T20:57:09.725Z,10.32
2022-09-23T20:59:37.140Z,6.88
2022-09-23T21:02:04.557Z,20.70
2022-09-23T21:04:34.637Z,12.75
2022-09-23T21:07:01.994Z,14.00
2022-09-23T21:09:30.817Z,13.55
2022-09-23T21:11:58.194Z,11.98
2022-09-23T21:14:25.817Z,19.92
2022-09-23T21:16:54.561Z,9.32
2022-09-23T21:19:22.506Z,11.98
2022-09-23T21:21:51.193Z,11.40
2022-09-23T21:24:45.617Z,9.35
2022-09-23T21:27:07.310Z,11.23
2022-09-23T21:29:34.659Z,10.73
2022-09-23T21:32:02.168Z,13.50
2022-09-23T21:34:32.722Z,11.52
2022-09-23T21:37:01.909Z,9.98
2022-09-23T21:39:29.359Z,10.90
2022-09-23T21:41:56.660Z,12.98
2022-09-23T21:44:24.009Z,10.30
2022-09-23T21:46:51.337Z,11.07
2022-09-23T21:49:18.752Z,18.60
2022-09-23T21:51:46.109Z,11.25
2022-09-23T21:54:15.495Z,11.93
2022-09-23T21:56:42.917Z,17.15
2022-09-23T21:59:10.375Z,12.90
2022-09-23T22:01:38.291Z,12.35
2022-09-23T22:04:08.029Z,11.57
2022-09-23T22:06:37.034Z,13.55
2022-09-23T22:09:05.023Z,9.00
2022-09-23T22:11:51.059Z,11.65
2022-09-23T22:14:19.091Z,12.57
2022-09-23T22:16:46.481Z,12.23
2022-09-23T22:19:14.925Z,9.68
2022-09-23T22:21:42.831Z,14.45
2022-09-23T22:24:10.575Z,9.98
2022-09-23T22:26:39.532Z,8.82
2022-09-23T22:29:24.697Z,10.98
2022-09-23T22:32:09.395Z,11.15
2022-09-23T22:34:49.495Z,13.07
2022-09-23T22:37:19.418Z,10.35
2022-09-23T22:39:46.775Z,9.80
2022-09-23T22:42:15.857Z,8.80
2022-09-23T22:44:43.184Z,9.05
2022-09-23T22:47:10.527Z,9.52
2022-09-23T22:49:37.872Z,10.45
2022-09-23T22:52:09.384Z,10.73
2022-09-23T22:54:36.856Z,10.70
2022-09-23T22:57:04.589Z,8.98
2022-09-23T22:59:33.299Z,11.75
2022-09-23T23:02:02.319Z,14.77
2022-09-23T23:04:30.335Z,12.32
2022-09-23T23:06:58.431Z,16.13
2022-09-23T23:09:25.781Z,11.90
2022-09-23T23:11:53.116Z,10.55
2022-09-23T23:14:20.506Z,11.82
2022-09-23T23:16:49.492Z,11.57
2022-09-23T23:19:17.443Z,11.07
2022-09-23T23:21:45.063Z,12.95
2022-09-23T23:24:14.535Z,11.05
2022-09-23T23:26:41.900Z,12.32
2022-09-23T23:29:09.531Z,10.98
2022-09-23T23:31:36.893Z,13.50
2022-09-23T23:34:05.789Z,13.40
2022-09-23T23:36:33.549Z,12.02
2022-09-23T23:39:00.892Z,12.45
2022-09-23T23:41:28.290Z,15.75
2022-09-23T23:43:56.474Z,10.38
2022-09-23T23:46:26.445Z,13.25
2022-09-23T23:48:54.332Z,12.88
2022-09-23T23:51:23.028Z,12.38
2022-09-23T23:53:50.364Z,10.32
2022-09-23T23:56:18.073Z,13.68
2022-09-23T23:58:45.402Z,11.32
